sensor_id;sensor_type;location;lat;lon;timestamp;pressure;altitude;pressure_sealevel;temperature;humidity
27425;BME280;15244;49.088;11.886;2024-03-08T00:03:00;95873.13;;;5.41;47.78
27425;BME280;15244;49.088;11.886;2024-03-08T00:08:06;95868.06;;;5.40;47.08
27425;BME280;15244;49.088;11.886;2024-03-08T00:13:11;95863.00;;;5.38;47.44
27425;BME280;15244;49.088;11.886;2024-03-08T00:18:13;95860.66;;;5.37;47.66
27425;BME280;15244;49.088;11.886;2024-03-08T00:23:14;95861.00;;;5.35;47.32
27425;BME280;15244;49.088;11.886;2024-03-08T00:28:17;95845.81;;;5.31;47.71
27425;BME280;15244;49.088;11.886;2024-03-08T00:33:20;95853.47;;;5.29;47.58
27425;BME280;15244;49.088;11.886;2024-03-08T00:38:22;95846.06;;;5.26;47.55
27425;BME280;15244;49.088;11.886;2024-03-08T00:43:25;95837.88;;;5.22;47.83
27425;BME280;15244;49.088;11.886;2024-03-08T00:48:27;95838.53;;;5.19;48.05
27425;BME280;15244;49.088;11.886;2024-03-08T00:53:29;95836.88;;;5.14;47.75
27425;BME280;15244;49.088;11.886;2024-03-08T00:58:31;95825.97;;;5.11;48.11
27425;BME280;15244;49.088;11.886;2024-03-08T01:03:33;95823.97;;;5.08;47.67
27425;BME280;15244;49.088;11.886;2024-03-08T01:08:35;95820.03;;;5.05;48.11
27425;BME280;15244;49.088;11.886;2024-03-08T01:13:39;95819.25;;;5.05;47.85
27425;BME280;15244;49.088;11.886;2024-03-08T01:18:42;95808.78;;;5.03;47.98
27425;BME280;15244;49.088;11.886;2024-03-08T01:23:44;95796.41;;;5.02;48.02
27425;BME280;15244;49.088;11.886;2024-03-08T01:28:46;95785.94;;;5.00;48.12
27425;BME280;15244;49.088;11.886;2024-03-08T01:33:48;95783.59;;;4.99;47.79
27425;BME280;15244;49.088;11.886;2024-03-08T01:38:52;95783.22;;;5.00;48.23
27425;BME280;15244;49.088;11.886;2024-03-08T01:43:54;95777.38;;;4.98;48.24
27425;BME280;15244;49.088;11.886;2024-03-08T01:48:56;95775.81;;;4.97;48.68
27425;BME280;15244;49.088;11.886;2024-03-08T01:54:01;95771.56;;;4.96;48.31
27425;BME280;15244;49.088;11.886;2024-03-08T01:59:04;95762.22;;;4.94;48.49
27425;BME280;15244;49.088;11.886;2024-03-08T02:04:09;95754.47;;;4.92;48.50
27425;BME280;15244;49.088;11.886;2024-03-08T02:09:11;95745.56;;;4.92;48.79
27425;BME280;15244;49.088;11.886;2024-03-08T02:14:13;95736.25;;;4.89;48.09
27425;BME280;15244;49.088;11.886;2024-03-08T02:19:15;95733.88;;;4.88;48.55
27425;BME280;15244;49.088;11.886;2024-03-08T02:24:17;95733.44;;;4.86;48.35
27425;BME280;15244;49.088;11.886;2024-03-08T02:29:19;95723.69;;;4.81;48.25
27425;BME280;15244;49.088;11.886;2024-03-08T02:34:21;95720.09;;;4.77;48.70
27425;BME280;15244;49.088;11.886;2024-03-08T02:39:23;95717.66;;;4.72;48.31
27425;BME280;15244;49.088;11.886;2024-03-08T02:44:24;95716.06;;;4.71;48.46
27425;BME280;15244;49.088;11.886;2024-03-08T02:49:26;95716.75;;;4.68;48.54
27425;BME280;15244;49.088;11.886;2024-03-08T02:54:28;95722.06;;;4.64;48.75
27425;BME280;15244;49.088;11.886;2024-03-08T02:59:30;95715.09;;;4.63;48.78
27425;BME280;15244;49.088;11.886;2024-03-08T03:04:31;95721.97;;;4.61;48.74
27425;BME280;15244;49.088;11.886;2024-03-08T03:09:34;95719.63;;;4.59;48.61
27425;BME280;15244;49.088;11.886;2024-03-08T03:14:36;95723.44;;;4.58;49.04
27425;BME280;15244;49.088;11.886;2024-03-08T03:19:41;95713.44;;;4.59;48.86
27425;BME280;15244;49.088;11.886;2024-03-08T03:24:47;95702.72;;;4.62;49.07
27425;BME280;15244;49.088;11.886;2024-03-08T03:29:49;95701.25;;;4.65;49.18
27425;BME280;15244;49.088;11.886;2024-03-08T03:34:51;95688.97;;;4.67;49.60
27425;BME280;15244;49.088;11.886;2024-03-08T03:39:54;95702.56;;;4.71;49.61
27425;BME280;15244;49.088;11.886;2024-03-08T03:44:57;95696.81;;;4.72;49.59
27425;BME280;15244;49.088;11.886;2024-03-08T03:49:59;95678.38;;;4.74;49.64
27425;BME280;15244;49.088;11.886;2024-03-08T03:55:04;95683.41;;;4.76;50.03
27425;BME280;15244;49.088;11.886;2024-03-08T04:00:07;95679.91;;;4.75;49.80
27425;BME280;15244;49.088;11.886;2024-03-08T04:05:29;95671.81;;;4.75;49.74
27425;BME280;15244;49.088;11.886;2024-03-08T04:10:30;95670.25;;;4.74;49.33
27425;BME280;15244;49.088;11.886;2024-03-08T04:15:32;95674.44;;;4.72;49.97
27425;BME280;15244;49.088;11.886;2024-03-08T04:20:34;95677.47;;;4.70;49.35
27425;BME280;15244;49.088;11.886;2024-03-08T04:25:36;95675.47;;;4.67;49.07
27425;BME280;15244;49.088;11.886;2024-03-08T04:30:40;95660.75;;;4.65;49.57
27425;BME280;15244;49.088;11.886;2024-03-08T04:35:41;95660.66;;;4.61;49.28
27425;BME280;15244;49.088;11.886;2024-03-08T04:40:43;95658.31;;;4.60;49.52
27425;BME280;15244;49.088;11.886;2024-03-08T04:45:45;95658.22;;;4.56;49.15
27425;BME280;15244;49.088;11.886;2024-03-08T04:50:47;95655.06;;;4.54;49.23
27425;BME280;15244;49.088;11.886;2024-03-08T04:55:49;95646.88;;;4.50;49.29
27425;BME280;15244;49.088;11.886;2024-03-08T05:00:50;95649.16;;;4.48;49.74
27425;BME280;15244;49.088;11.886;2024-03-08T05:05:52;95645.22;;;4.46;49.55
27425;BME280;15244;49.088;11.886;2024-03-08T05:10:54;95648.25;;;4.44;49.65
27425;BME280;15244;49.088;11.886;2024-03-08T05:15:56;95641.97;;;4.40;49.49
27425;BME280;15244;49.088;11.886;2024-03-08T05:20:59;95643.81;;;4.36;49.66
27425;BME280;15244;49.088;11.886;2024-03-08T05:26:01;95639.88;;;4.33;49.14
27425;BME280;15244;49.088;11.886;2024-03-08T05:31:03;95637.06;;;4.30;49.38
27425;BME280;15244;49.088;11.886;2024-03-08T05:36:05;95630.13;;;4.29;49.51
27425;BME280;15244;49.088;11.886;2024-03-08T05:41:07;95631.22;;;4.28;49.46
27425;BME280;15244;49.088;11.886;2024-03-08T05:46:09;95637.44;;;4.28;49.64
27425;BME280;15244;49.088;11.886;2024-03-08T05:51:13;95625.06;;;4.27;50.05
27425;BME280;15244;49.088;11.886;2024-03-08T05:56:18;95625.06;;;4.27;49.61
27425;BME280;15244;49.088;11.886;2024-03-08T06:01:20;95622.03;;;4.29;50.01
27425;BME280;15244;49.088;11.886;2024-03-08T06:06:26;95619.53;;;4.36;50.04
27425;BME280;15244;49.088;11.886;2024-03-08T06:11:28;95625.88;;;4.44;50.13
27425;BME280;15244;49.088;11.886;2024-03-08T06:16:30;95622.41;;;4.43;50.07
27425;BME280;15244;49.088;11.886;2024-03-08T06:21:31;95625.88;;;4.44;50.17
27425;BME280;15244;49.088;11.886;2024-03-08T06:26:34;95614.72;;;4.45;50.52
27425;BME280;15244;49.088;11.886;2024-03-08T06:31:39;95616.66;;;4.45;50.67
27425;BME280;15244;49.088;11.886;2024-03-08T06:36:41;95617.09;;;4.47;50.85
27425;BME280;15244;49.088;11.886;2024-03-08T06:41:43;95619.53;;;4.52;50.93
27425;BME280;15244;49.088;11.886;2024-03-08T06:46:46;95625.00;;;4.55;50.96
27425;BME280;15244;49.088;11.886;2024-03-08T06:51:47;95620.94;;;4.62;50.71
27425;BME280;15244;49.088;11.886;2024-03-08T06:56:49;95610.66;;;4.67;50.68
27425;BME280;15244;49.088;11.886;2024-03-08T07:01:52;95612.41;;;4.75;51.12
27425;BME280;15244;49.088;11.886;2024-03-08T07:06:56;95614.16;;;4.84;51.64
27425;BME280;15244;49.088;11.886;2024-03-08T07:11:58;95608.56;;;4.92;51.24
27425;BME280;15244;49.088;11.886;2024-03-08T07:17:00;95601.41;;;5.00;51.16
27425;BME280;15244;49.088;11.886;2024-03-08T07:22:05;95607.78;;;5.08;51.50
27425;BME280;15244;49.088;11.886;2024-03-08T07:27:09;95608.00;;;5.18;51.82
27425;BME280;15244;49.088;11.886;2024-03-08T07:32:11;95591.97;;;5.26;51.78
27425;BME280;15244;49.088;11.886;2024-03-08T07:37:22;95606.09;;;5.35;51.71
27425;BME280;15244;49.088;11.886;2024-03-08T07:42:25;95607.81;;;5.43;51.71
27425;BME280;15244;49.088;11.886;2024-03-08T07:47:26;95596.78;;;5.52;51.69
27425;BME280;15244;49.088;11.886;2024-03-08T07:52:28;95598.91;;;5.62;51.84
27425;BME280;15244;49.088;11.886;2024-03-08T07:57:30;95591.50;;;5.75;51.46
27425;BME280;15244;49.088;11.886;2024-03-08T08:02:32;95587.41;;;5.84;51.45
27425;BME280;15244;49.088;11.886;2024-03-08T08:07:39;95582.66;;;5.97;51.66
27425;BME280;15244;49.088;11.886;2024-03-08T08:12:45;95584.00;;;6.07;51.34
27425;BME280;15244;49.088;11.886;2024-03-08T08:17:47;95586.91;;;6.18;51.37
27425;BME280;15244;49.088;11.886;2024-03-08T08:22:49;95581.72;;;6.28;50.84
27425;BME280;15244;49.088;11.886;2024-03-08T08:27:51;95580.34;;;6.38;50.63
27425;BME280;15244;49.088;11.886;2024-03-08T08:32:55;95573.53;;;6.48;50.25
27425;BME280;15244;49.088;11.886;2024-03-08T08:37:56;95573.31;;;6.57;50.68
27425;BME280;15244;49.088;11.886;2024-03-08T08:43:00;95567.66;;;6.65;49.92
27425;BME280;15244;49.088;11.886;2024-03-08T08:48:02;95555.81;;;6.73;49.83
27425;BME280;15244;49.088;11.886;2024-03-08T08:53:04;95549.69;;;6.80;49.63
27425;BME280;15244;49.088;11.886;2024-03-08T08:58:08;95551.44;;;6.92;49.83
27425;BME280;15244;49.088;11.886;2024-03-08T09:03:10;95560.09;;;7.01;49.53
27425;BME280;15244;49.088;11.886;2024-03-08T09:08:12;95545.56;;;7.13;49.26
27425;BME280;15244;49.088;11.886;2024-03-08T09:13:14;95537.19;;;7.22;49.32
27425;BME280;15244;49.088;11.886;2024-03-08T09:18:29;95532.25;;;7.31;48.84
27425;BME280;15244;49.088;11.886;2024-03-08T09:23:31;95521.19;;;7.43;48.97
27425;BME280;15244;49.088;11.886;2024-03-08T09:28:33;95517.38;;;7.48;48.86
27425;BME280;15244;49.088;11.886;2024-03-08T09:33:36;95517.50;;;7.58;48.70
27425;BME280;15244;49.088;11.886;2024-03-08T09:38:39;95507.94;;;7.68;48.44
27425;BME280;15244;49.088;11.886;2024-03-08T09:43:44;95506.09;;;7.79;48.19
27425;BME280;15244;49.088;11.886;2024-03-08T09:48:47;95503.56;;;7.94;48.22
27425;BME280;15244;49.088;11.886;2024-03-08T09:53:49;95499.44;;;8.07;48.17
27425;BME280;15244;49.088;11.886;2024-03-08T09:58:50;95490.25;;;8.19;48.18
27425;BME280;15244;49.088;11.886;2024-03-08T10:04:09;95496.53;;;8.30;47.46
27425;BME280;15244;49.088;11.886;2024-03-08T10:09:12;95489.34;;;8.45;47.82
27425;BME280;15244;49.088;11.886;2024-03-08T10:14:15;95480.19;;;8.64;47.70
27425;BME280;15244;49.088;11.886;2024-03-08T10:19:19;95477.19;;;8.83;47.59
27425;BME280;15244;49.088;11.886;2024-03-08T10:24:22;95465.25;;;8.99;47.23
27425;BME280;15244;49.088;11.886;2024-03-08T10:29:25;95468.84;;;9.14;46.94
27425;BME280;15244;49.088;11.886;2024-03-08T10:34:28;95463.50;;;9.28;46.80
27425;BME280;15244;49.088;11.886;2024-03-08T10:39:36;95454.59;;;9.42;46.16
27425;BME280;15244;49.088;11.886;2024-03-08T10:45:02;95452.72;;;9.57;46.33
27425;BME280;15244;49.088;11.886;2024-03-08T10:50:19;95452.78;;;9.71;46.21
27425;BME280;15244;49.088;11.886;2024-03-08T10:55:28;95448.94;;;9.83;45.80
27425;BME280;15244;49.088;11.886;2024-03-08T11:00:30;95449.72;;;9.94;45.06
27425;BME280;15244;49.088;11.886;2024-03-08T11:05:40;95443.16;;;10.06;45.12
27425;BME280;15244;49.088;11.886;2024-03-08T11:10:52;95442.38;;;10.19;45.19
27425;BME280;15244;49.088;11.886;2024-03-08T11:15:55;95427.63;;;10.35;45.13
27425;BME280;15244;49.088;11.886;2024-03-08T11:20:58;95417.13;;;10.51;44.81
27425;BME280;15244;49.088;11.886;2024-03-08T11:26:00;95403.84;;;10.68;45.14
27425;BME280;15244;49.088;11.886;2024-03-08T11:41:12;95383.88;;;11.17;44.32
27425;BME280;15244;49.088;11.886;2024-03-08T11:46:19;95383.03;;;11.31;44.44
27425;BME280;15244;49.088;11.886;2024-03-08T11:51:22;95363.84;;;11.49;44.12
27425;BME280;15244;49.088;11.886;2024-03-08T11:56:25;95357.53;;;11.63;43.76
27425;BME280;15244;49.088;11.886;2024-03-08T12:01:26;95350.03;;;11.78;43.83
27425;BME280;15244;49.088;11.886;2024-03-08T12:06:38;95339.84;;;11.92;43.23
27425;BME280;15244;49.088;11.886;2024-03-08T12:11:43;95332.28;;;12.07;43.46
27425;BME280;15244;49.088;11.886;2024-03-08T12:16:50;95321.63;;;12.24;43.25
27425;BME280;15244;49.088;11.886;2024-03-08T12:21:54;95305.13;;;12.34;42.95
27425;BME280;15244;49.088;11.886;2024-03-08T12:26:55;95308.16;;;12.44;42.60
27425;BME280;15244;49.088;11.886;2024-03-08T12:31:59;95298.31;;;12.53;42.52
27425;BME280;15244;49.088;11.886;2024-03-08T12:37:03;95303.66;;;12.64;42.26
27425;BME280;15244;49.088;11.886;2024-03-08T12:42:08;95297.28;;;12.74;41.78
27425;BME280;15244;49.088;11.886;2024-03-08T12:47:10;95292.47;;;12.86;41.93
27425;BME280;15244;49.088;11.886;2024-03-08T12:52:12;95283.00;;;12.94;41.67
27425;BME280;15244;49.088;11.886;2024-03-08T12:57:14;95268.41;;;13.04;41.46
27425;BME280;15244;49.088;11.886;2024-03-08T13:02:16;95261.22;;;13.14;41.41
27425;BME280;15244;49.088;11.886;2024-03-08T13:07:18;95255.28;;;13.22;41.25
27425;BME280;15244;49.088;11.886;2024-03-08T13:12:21;95259.13;;;13.29;41.15
27425;BME280;15244;49.088;11.886;2024-03-08T13:17:22;95253.97;;;13.34;40.58
27425;BME280;15244;49.088;11.886;2024-03-08T13:22:24;95250.34;;;13.41;40.50
27425;BME280;15244;49.088;11.886;2024-03-08T13:27:27;95252.59;;;13.50;40.34
27425;BME280;15244;49.088;11.886;2024-03-08T13:32:30;95243.44;;;13.60;40.18
27425;BME280;15244;49.088;11.886;2024-03-08T13:37:33;95240.56;;;13.67;40.08
27425;BME280;15244;49.088;11.886;2024-03-08T13:42:37;95233.44;;;13.73;39.61
27425;BME280;15244;49.088;11.886;2024-03-08T13:47:40;95234.94;;;13.78;39.00
27425;BME280;15244;49.088;11.886;2024-03-08T13:52:42;95232.84;;;13.85;39.04
27425;BME280;15244;49.088;11.886;2024-03-08T13:57:47;95229.94;;;13.96;38.82
27425;BME280;15244;49.088;11.886;2024-03-08T14:02:49;95230.50;;;14.07;38.29
27425;BME280;15244;49.088;11.886;2024-03-08T14:07:52;95212.03;;;14.12;38.10
27425;BME280;15244;49.088;11.886;2024-03-08T14:12:56;95216.69;;;14.15;37.79
27425;BME280;15244;49.088;11.886;2024-03-08T14:17:58;95206.06;;;14.17;37.62
27425;BME280;15244;49.088;11.886;2024-03-08T14:23:01;95188.00;;;14.19;37.42
27425;BME280;15244;49.088;11.886;2024-03-08T14:28:03;95188.28;;;14.25;37.01
27425;BME280;15244;49.088;11.886;2024-03-08T14:33:09;95183.44;;;14.32;36.84
27425;BME280;15244;49.088;11.886;2024-03-08T14:38:11;95171.09;;;14.44;36.95
27425;BME280;15244;49.088;11.886;2024-03-08T14:43:14;95176.06;;;14.49;36.41
27425;BME280;15244;49.088;11.886;2024-03-08T14:48:18;95181.09;;;14.55;36.01
27425;BME280;15244;49.088;11.886;2024-03-08T14:53:20;95165.34;;;14.59;35.28
27425;BME280;15244;49.088;11.886;2024-03-08T14:58:26;95156.69;;;14.60;35.67
27425;BME280;15244;49.088;11.886;2024-03-08T15:03:29;95157.75;;;14.66;35.19
27425;BME280;15244;49.088;11.886;2024-03-08T15:08:32;95156.81;;;14.73;35.36
27425;BME280;15244;49.088;11.886;2024-03-08T15:13:34;95157.88;;;14.79;34.65
27425;BME280;15244;49.088;11.886;2024-03-08T15:18:45;95146.03;;;14.82;34.50
27425;BME280;15244;49.088;11.886;2024-03-08T15:23:53;95141.75;;;14.81;34.40
27425;BME280;15244;49.088;11.886;2024-03-08T15:28:56;95132.66;;;14.84;34.36
27425;BME280;15244;49.088;11.886;2024-03-08T15:33:58;95125.97;;;14.85;33.75
27425;BME280;15244;49.088;11.886;2024-03-08T15:39:02;95131.72;;;14.91;33.92
27425;BME280;15244;49.088;11.886;2024-03-08T15:44:05;95124.69;;;14.90;33.71
27425;BME280;15244;49.088;11.886;2024-03-08T15:49:08;95113.63;;;14.93;33.76
27425;BME280;15244;49.088;11.886;2024-03-08T15:54:13;95113.47;;;15.01;33.74
27425;BME280;15244;49.088;11.886;2024-03-08T15:59:15;95118.38;;;15.09;33.95
27425;BME280;15244;49.088;11.886;2024-03-08T16:04:19;95107.06;;;15.07;33.69
27425;BME280;15244;49.088;11.886;2024-03-08T16:09:22;95102.44;;;15.04;33.49
27425;BME280;15244;49.088;11.886;2024-03-08T16:14:26;95100.63;;;14.98;33.34
27425;BME280;15244;49.088;11.886;2024-03-08T16:19:29;95081.56;;;14.90;33.20
27425;BME280;15244;49.088;11.886;2024-03-08T16:24:32;95094.59;;;14.86;33.13
27425;BME280;15244;49.088;11.886;2024-03-08T16:29:35;95084.13;;;14.81;33.14
27425;BME280;15244;49.088;11.886;2024-03-08T16:34:38;95075.19;;;14.77;33.01
27425;BME280;15244;49.088;11.886;2024-03-08T16:39:40;95074.16;;;14.71;32.97
27425;BME280;15244;49.088;11.886;2024-03-08T16:44:42;95077.91;;;14.61;33.38
27425;BME280;15244;49.088;11.886;2024-03-08T16:49:44;95075.09;;;14.44;33.68
27425;BME280;15244;49.088;11.886;2024-03-08T16:54:46;95078.63;;;14.25;33.77
27425;BME280;15244;49.088;11.886;2024-03-08T16:59:58;95062.34;;;13.98;33.92
27425;BME280;15244;49.088;11.886;2024-03-08T17:05:00;95069.41;;;13.75;34.20
27425;BME280;15244;49.088;11.886;2024-03-08T17:10:06;95065.94;;;13.51;34.58
27425;BME280;15244;49.088;11.886;2024-03-08T17:15:16;95064.38;;;13.27;34.65
27425;BME280;15244;49.088;11.886;2024-03-08T17:20:26;95063.97;;;13.05;34.79
27425;BME280;15244;49.088;11.886;2024-03-08T17:25:27;95069.34;;;12.85;35.09
27425;BME280;15244;49.088;11.886;2024-03-08T17:30:31;95059.50;;;12.64;35.58
27425;BME280;15244;49.088;11.886;2024-03-08T17:35:34;95068.34;;;12.44;36.02
27425;BME280;15244;49.088;11.886;2024-03-08T17:40:37;95063.53;;;12.25;35.77
27425;BME280;15244;49.088;11.886;2024-03-08T17:45:41;95062.22;;;12.06;36.14
27425;BME280;15244;49.088;11.886;2024-03-08T17:50:48;95063.59;;;11.87;36.46
27425;BME280;15244;49.088;11.886;2024-03-08T17:55:55;95067.63;;;11.71;36.85
27425;BME280;15244;49.088;11.886;2024-03-08T18:00:59;95081.06;;;11.55;37.01
27425;BME280;15244;49.088;11.886;2024-03-08T18:06:00;95075.34;;;11.42;37.24
27425;BME280;15244;49.088;11.886;2024-03-08T18:11:06;95067.28;;;11.28;37.61
27425;BME280;15244;49.088;11.886;2024-03-08T18:16:09;95070.13;;;11.14;37.57
27425;BME280;15244;49.088;11.886;2024-03-08T18:21:13;95063.22;;;11.02;37.87
27425;BME280;15244;49.088;11.886;2024-03-08T18:26:15;95078.50;;;10.89;37.96
27425;BME280;15244;49.088;11.886;2024-03-08T18:31:19;95062.66;;;10.76;38.31
27425;BME280;15244;49.088;11.886;2024-03-08T18:36:23;95063.13;;;10.64;38.67
27425;BME280;15244;49.088;11.886;2024-03-08T18:41:25;95059.66;;;10.53;38.63
27425;BME280;15244;49.088;11.886;2024-03-08T18:46:34;95046.50;;;10.40;38.72
27425;BME280;15244;49.088;11.886;2024-03-08T18:51:37;95045.38;;;10.27;39.16
27425;BME280;15244;49.088;11.886;2024-03-08T18:56:39;95047.78;;;10.18;38.88
27425;BME280;15244;49.088;11.886;2024-03-08T19:01:42;95040.84;;;10.06;39.18
27425;BME280;15244;49.088;11.886;2024-03-08T19:06:50;95044.78;;;9.91;39.26
27425;BME280;15244;49.088;11.886;2024-03-08T19:11:52;95035.88;;;9.83;39.61
27425;BME280;15244;49.088;11.886;2024-03-08T19:16:58;95037.84;;;9.72;40.04
27425;BME280;15244;49.088;11.886;2024-03-08T19:22:00;95038.28;;;9.63;39.90
27425;BME280;15244;49.088;11.886;2024-03-08T19:27:03;95032.47;;;9.54;40.14
27425;BME280;15244;49.088;11.886;2024-03-08T19:32:08;95030.94;;;9.46;40.31
27425;BME280;15244;49.088;11.886;2024-03-08T19:37:13;95018.91;;;9.36;40.25
27425;BME280;15244;49.088;11.886;2024-03-08T19:42:16;95025.16;;;9.29;40.43
27425;BME280;15244;49.088;11.886;2024-03-08T19:47:18;95018.97;;;9.22;40.40
27425;BME280;15244;49.088;11.886;2024-03-08T19:52:20;95017.78;;;9.16;40.51
27425;BME280;15244;49.088;11.886;2024-03-08T19:57:23;95012.34;;;9.08;40.70
27425;BME280;15244;49.088;11.886;2024-03-08T20:02:24;95004.22;;;9.01;40.83
27425;BME280;15244;49.088;11.886;2024-03-08T20:07:28;95002.69;;;8.97;41.38
27425;BME280;15244;49.088;11.886;2024-03-08T20:12:29;94999.97;;;8.89;40.89
27425;BME280;15244;49.088;11.886;2024-03-08T20:17:32;95007.75;;;8.84;40.82
27425;BME280;15244;49.088;11.886;2024-03-08T20:22:34;95002.31;;;8.77;40.44
27425;BME280;15244;49.088;11.886;2024-03-08T20:27:36;94997.63;;;8.70;40.99
27425;BME280;15244;49.088;11.886;2024-03-08T20:32:41;94998.44;;;8.63;41.18
27425;BME280;15244;49.088;11.886;2024-03-08T20:37:42;94976.28;;;8.54;41.24
27425;BME280;15244;49.088;11.886;2024-03-08T20:42:45;94972.41;;;8.44;41.26
27425;BME280;15244;49.088;11.886;2024-03-08T20:47:49;94982.84;;;8.35;41.43
27425;BME280;15244;49.088;11.886;2024-03-08T20:52:51;94977.81;;;8.27;41.46
27425;BME280;15244;49.088;11.886;2024-03-08T20:57:55;94959.19;;;8.21;41.62
27425;BME280;15244;49.088;11.886;2024-03-08T21:02:59;94953.38;;;8.16;41.91
27425;BME280;15244;49.088;11.886;2024-03-08T21:08:05;94938.19;;;8.08;41.88
27425;BME280;15244;49.088;11.886;2024-03-08T21:13:08;94954.50;;;8.04;41.94
27425;BME280;15244;49.088;11.886;2024-03-08T21:18:16;94943.25;;;7.98;41.96
27425;BME280;15244;49.088;11.886;2024-03-08T21:23:19;94950.59;;;7.94;41.96
27425;BME280;15244;49.088;11.886;2024-03-08T21:28:21;94952.53;;;7.90;41.95
27425;BME280;15244;49.088;11.886;2024-03-08T21:33:31;94951.38;;;7.88;42.18
27425;BME280;15244;49.088;11.886;2024-03-08T21:38:33;94943.97;;;7.85;42.25
27425;BME280;15244;49.088;11.886;2024-03-08T21:43:34;94944.75;;;7.78;42.31
27425;BME280;15244;49.088;11.886;2024-03-08T21:48:37;94945.91;;;7.73;42.27
27425;BME280;15244;49.088;11.886;2024-03-08T21:53:39;94940.09;;;7.68;42.43
27425;BME280;15244;49.088;11.886;2024-03-08T21:58:42;94935.78;;;7.59;42.20
27425;BME280;15244;49.088;11.886;2024-03-08T22:03:44;94936.56;;;7.53;42.40
27425;BME280;15244;49.088;11.886;2024-03-08T22:08:46;94934.22;;;7.48;42.34
27425;BME280;15244;49.088;11.886;2024-03-08T22:13:48;94915.56;;;7.39;42.26
27425;BME280;15244;49.088;11.886;2024-03-08T22:18:49;94904.72;;;7.32;42.74
27425;BME280;15244;49.088;11.886;2024-03-08T22:23:51;94906.22;;;7.26;42.71
27425;BME280;15244;49.088;11.886;2024-03-08T22:28:53;94909.31;;;7.21;42.82
27425;BME280;15244;49.088;11.886;2024-03-08T22:33:55;94898.06;;;7.19;43.22
27425;BME280;15244;49.088;11.886;2024-03-08T22:38:57;94900.78;;;7.15;43.41
27425;BME280;15244;49.088;11.886;2024-03-08T22:43:59;94899.59;;;7.12;43.29
27425;BME280;15244;49.088;11.886;2024-03-08T22:49:01;94894.16;;;7.09;43.63
27425;BME280;15244;49.088;11.886;2024-03-08T22:54:03;94893.38;;;7.08;43.52
27425;BME280;15244;49.088;11.886;2024-03-08T22:59:06;94888.72;;;7.05;43.58
27425;BME280;15244;49.088;11.886;2024-03-08T23:04:08;94886.38;;;7.04;43.65
27425;BME280;15244;49.088;11.886;2024-03-08T23:09:10;94886.00;;;7.02;43.72
27425;BME280;15244;49.088;11.886;2024-03-08T23:14:15;94877.47;;;7.00;43.73
27425;BME280;15244;49.088;11.886;2024-03-08T23:19:16;94874.75;;;6.96;43.90
27425;BME280;15244;49.088;11.886;2024-03-08T23:24:19;94869.72;;;6.94;44.03
27425;BME280;15244;49.088;11.886;2024-03-08T23:29:21;94867.78;;;6.91;43.54
27425;BME280;15244;49.088;11.886;2024-03-08T23:34:23;94865.44;;;6.90;44.35
27425;BME280;15244;49.088;11.886;2024-03-08T23:39:26;94862.31;;;6.88;44.28
27425;BME280;15244;49.088;11.886;2024-03-08T23:44:28;94871.22;;;6.85;43.92
27425;BME280;15244;49.088;11.886;2024-03-08T23:49:30;94860.38;;;6.85;44.08
27425;BME280;15244;49.088;11.886;2024-03-08T23:54:31;94853.78;;;6.82;44.51
27425;BME280;15244;49.088;11.886;2024-03-08T23:59:34;94849.13;;;6.79;44.26
